sensor_id;sensor_type;location;lat;lon;timestamp;P1;durP1;ratioP1;P2;durP2;ratioP2
18933;SDS011;9599;53.706;10.384;2023-03-14T00:02:26;5.63;;;3.17;;
18933;SDS011;9599;53.706;10.384;2023-03-14T00:04:54;6.17;;;3.10;;
18933;SDS011;9599;53.706;10.384;2023-03-14T00:07:24;8.13;;;3.30;;
18933;SDS011;9599;53.706;10.384;2023-03-14T00:09:52;7.50;;;3.17;;
18933;SDS011;9599;53.706;10.384;2023-03-14T00:12:20;6.27;;;3.13;;
18933;SDS011;9599;53.706;10.384;2023-03-14T00:14:48;5.37;;;3.30;;
18933;SDS011;9599;53.706;10.384;2023-03-14T00:17:16;6.40;;;3.40;;
18933;SDS011;9599;53.706;10.384;2023-03-14T00:19:44;7.40;;;3.40;;
18933;SDS011;9599;53.706;10.384;2023-03-14T00:22:12;6.30;;;3.37;;
18933;SDS011;9599;53.706;10.384;2023-03-14T00:24:41;6.53;;;3.20;;
18933;SDS011;9599;53.706;10.384;2023-03-14T00:27:09;7.07;;;3.20;;
18933;SDS011;9599;53.706;10.384;2023-03-14T00:29:37;7.93;;;3.33;;
18933;SDS011;9599;53.706;10.384;2023-03-14T00:32:06;5.93;;;3.33;;
18933;SDS011;9599;53.706;10.384;2023-03-14T00:34:34;5.47;;;3.03;;
18933;SDS011;9599;53.706;10.384;2023-03-14T00:37:01;4.90;;;2.90;;
18933;SDS011;9599;53.706;10.384;2023-03-14T00:39:30;5.07;;;3.20;;
18933;SDS011;9599;53.706;10.384;2023-03-14T00:41:59;6.57;;;3.70;;
18933;SDS011;9599;53.706;10.384;2023-03-14T00:44:28;5.00;;;3.10;;
18933;SDS011;9599;53.706;10.384;2023-03-14T00:46:56;6.07;;;3.40;;
18933;SDS011;9599;53.706;10.384;2023-03-14T00:49:26;6.93;;;3.13;;
18933;SDS011;9599;53.706;10.384;2023-03-14T00:51:54;8.33;;;3.40;;
18933;SDS011;9599;53.706;10.384;2023-03-14T00:54:22;6.23;;;3.20;;
18933;SDS011;9599;53.706;10.384;2023-03-14T00:56:50;6.73;;;3.30;;
18933;SDS011;9599;53.706;10.384;2023-03-14T00:59:19;6.30;;;3.17;;
18933;SDS011;9599;53.706;10.384;2023-03-14T01:01:47;5.57;;;2.70;;
18933;SDS011;9599;53.706;10.384;2023-03-14T01:04:15;7.93;;;2.93;;
18933;SDS011;9599;53.706;10.384;2023-03-14T01:06:43;6.07;;;3.33;;
18933;SDS011;9599;53.706;10.384;2023-03-14T01:09:11;7.30;;;3.20;;
18933;SDS011;9599;53.706;10.384;2023-03-14T01:11:40;6.27;;;3.07;;
18933;SDS011;9599;53.706;10.384;2023-03-14T01:14:08;4.47;;;2.70;;
18933;SDS011;9599;53.706;10.384;2023-03-14T01:16:41;7.50;;;3.20;;
18933;SDS011;9599;53.706;10.384;2023-03-14T01:19:09;5.70;;;3.00;;
18933;SDS011;9599;53.706;10.384;2023-03-14T01:21:37;8.80;;;3.20;;
18933;SDS011;9599;53.706;10.384;2023-03-14T01:24:05;8.50;;;3.17;;
18933;SDS011;9599;53.706;10.384;2023-03-14T01:26:34;8.70;;;3.27;;
18933;SDS011;9599;53.706;10.384;2023-03-14T01:29:05;7.20;;;3.10;;
18933;SDS011;9599;53.706;10.384;2023-03-14T01:31:35;4.20;;;2.90;;
18933;SDS011;9599;53.706;10.384;2023-03-14T01:34:05;8.53;;;3.67;;
18933;SDS011;9599;53.706;10.384;2023-03-14T01:36:33;6.80;;;3.00;;
18933;SDS011;9599;53.706;10.384;2023-03-14T01:39:01;6.73;;;3.10;;
18933;SDS011;9599;53.706;10.384;2023-03-14T01:41:30;6.60;;;3.30;;
18933;SDS011;9599;53.706;10.384;2023-03-14T01:43:59;5.77;;;3.07;;
18933;SDS011;9599;53.706;10.384;2023-03-14T01:46:32;5.27;;;2.70;;
18933;SDS011;9599;53.706;10.384;2023-03-14T01:49:08;6.60;;;3.00;;
18933;SDS011;9599;53.706;10.384;2023-03-14T01:51:46;7.10;;;3.30;;
18933;SDS011;9599;53.706;10.384;2023-03-14T01:54:19;6.00;;;3.10;;
18933;SDS011;9599;53.706;10.384;2023-03-14T01:56:51;6.00;;;3.40;;
18933;SDS011;9599;53.706;10.384;2023-03-14T01:59:23;5.07;;;2.80;;
18933;SDS011;9599;53.706;10.384;2023-03-14T02:01:54;5.37;;;3.00;;
18933;SDS011;9599;53.706;10.384;2023-03-14T02:04:25;5.07;;;3.10;;
18933;SDS011;9599;53.706;10.384;2023-03-14T02:06:58;7.50;;;3.30;;
18933;SDS011;9599;53.706;10.384;2023-03-14T02:09:34;5.53;;;3.17;;
18933;SDS011;9599;53.706;10.384;2023-03-14T02:12:03;3.73;;;3.10;;
18933;SDS011;9599;53.706;10.384;2023-03-14T02:14:46;7.73;;;3.67;;
18933;SDS011;9599;53.706;10.384;2023-03-14T02:17:20;4.93;;;2.97;;
18933;SDS011;9599;53.706;10.384;2023-03-14T02:20:06;6.57;;;3.33;;
18933;SDS011;9599;53.706;10.384;2023-03-14T02:22:42;5.17;;;3.20;;
18933;SDS011;9599;53.706;10.384;2023-03-14T02:25:13;5.67;;;3.23;;
18933;SDS011;9599;53.706;10.384;2023-03-14T02:27:46;7.37;;;3.30;;
18933;SDS011;9599;53.706;10.384;2023-03-14T02:30:16;7.23;;;3.50;;
18933;SDS011;9599;53.706;10.384;2023-03-14T02:32:46;4.80;;;3.37;;
18933;SDS011;9599;53.706;10.384;2023-03-14T02:35:18;6.40;;;3.37;;
18933;SDS011;9599;53.706;10.384;2023-03-14T02:37:50;5.57;;;3.67;;
18933;SDS011;9599;53.706;10.384;2023-03-14T02:40:23;5.97;;;3.40;;
18933;SDS011;9599;53.706;10.384;2023-03-14T02:42:53;6.07;;;3.10;;
18933;SDS011;9599;53.706;10.384;2023-03-14T02:48:19;7.83;;;3.33;;
18933;SDS011;9599;53.706;10.384;2023-03-14T02:50:50;7.57;;;3.40;;
18933;SDS011;9599;53.706;10.384;2023-03-14T02:53:21;10.30;;;3.43;;
18933;SDS011;9599;53.706;10.384;2023-03-14T02:55:55;8.63;;;2.93;;
18933;SDS011;9599;53.706;10.384;2023-03-14T02:58:25;6.93;;;3.33;;
18933;SDS011;9599;53.706;10.384;2023-03-14T03:01:01;7.13;;;3.10;;
18933;SDS011;9599;53.706;10.384;2023-03-14T03:03:29;7.40;;;3.43;;
18933;SDS011;9599;53.706;10.384;2023-03-14T03:05:57;6.60;;;2.80;;
18933;SDS011;9599;53.706;10.384;2023-03-14T03:08:26;5.50;;;3.10;;
18933;SDS011;9599;53.706;10.384;2023-03-14T03:10:56;7.83;;;3.30;;
18933;SDS011;9599;53.706;10.384;2023-03-14T03:13:28;7.30;;;3.27;;
18933;SDS011;9599;53.706;10.384;2023-03-14T03:15:58;11.03;;;4.00;;
18933;SDS011;9599;53.706;10.384;2023-03-14T03:18:26;8.83;;;3.60;;
18933;SDS011;9599;53.706;10.384;2023-03-14T03:20:54;8.50;;;3.67;;
18933;SDS011;9599;53.706;10.384;2023-03-14T03:23:22;6.83;;;4.00;;
18933;SDS011;9599;53.706;10.384;2023-03-14T03:25:50;9.00;;;4.10;;
18933;SDS011;9599;53.706;10.384;2023-03-14T03:28:19;6.13;;;3.60;;
18933;SDS011;9599;53.706;10.384;2023-03-14T03:30:50;8.70;;;3.20;;
18933;SDS011;9599;53.706;10.384;2023-03-14T03:33:18;5.70;;;3.63;;
18933;SDS011;9599;53.706;10.384;2023-03-14T03:35:48;4.97;;;3.13;;
18933;SDS011;9599;53.706;10.384;2023-03-14T03:38:25;6.60;;;3.50;;
18933;SDS011;9599;53.706;10.384;2023-03-14T03:40:54;8.13;;;3.77;;
18933;SDS011;9599;53.706;10.384;2023-03-14T03:43:25;7.10;;;3.03;;
18933;SDS011;9599;53.706;10.384;2023-03-14T03:45:57;7.43;;;3.10;;
18933;SDS011;9599;53.706;10.384;2023-03-14T03:48:25;4.50;;;3.20;;
18933;SDS011;9599;53.706;10.384;2023-03-14T03:50:54;5.27;;;2.93;;
18933;SDS011;9599;53.706;10.384;2023-03-14T03:53:22;7.57;;;3.20;;
18933;SDS011;9599;53.706;10.384;2023-03-14T03:56:01;7.93;;;3.70;;
18933;SDS011;9599;53.706;10.384;2023-03-14T03:58:30;9.50;;;3.37;;
18933;SDS011;9599;53.706;10.384;2023-03-14T04:00:59;7.17;;;3.43;;
18933;SDS011;9599;53.706;10.384;2023-03-14T04:03:27;7.53;;;3.40;;
18933;SDS011;9599;53.706;10.384;2023-03-14T04:05:59;7.20;;;3.37;;
18933;SDS011;9599;53.706;10.384;2023-03-14T04:08:29;8.90;;;3.50;;
18933;SDS011;9599;53.706;10.384;2023-03-14T04:10:58;10.17;;;3.43;;
18933;SDS011;9599;53.706;10.384;2023-03-14T04:13:46;5.77;;;3.37;;
18933;SDS011;9599;53.706;10.384;2023-03-14T04:16:16;6.17;;;3.60;;
18933;SDS011;9599;53.706;10.384;2023-03-14T04:18:46;7.93;;;3.20;;
18933;SDS011;9599;53.706;10.384;2023-03-14T04:21:15;6.67;;;3.43;;
18933;SDS011;9599;53.706;10.384;2023-03-14T04:23:49;7.37;;;3.37;;
18933;SDS011;9599;53.706;10.384;2023-03-14T04:26:18;5.87;;;3.43;;
18933;SDS011;9599;53.706;10.384;2023-03-14T04:28:46;7.57;;;3.80;;
18933;SDS011;9599;53.706;10.384;2023-03-14T04:31:16;9.60;;;3.57;;
18933;SDS011;9599;53.706;10.384;2023-03-14T04:33:46;6.63;;;3.50;;
18933;SDS011;9599;53.706;10.384;2023-03-14T04:36:18;10.90;;;4.37;;
18933;SDS011;9599;53.706;10.384;2023-03-14T04:38:47;9.67;;;3.40;;
18933;SDS011;9599;53.706;10.384;2023-03-14T04:41:18;8.70;;;3.73;;
18933;SDS011;9599;53.706;10.384;2023-03-14T04:43:47;3.90;;;3.03;;
18933;SDS011;9599;53.706;10.384;2023-03-14T04:46:16;8.13;;;3.70;;
18933;SDS011;9599;53.706;10.384;2023-03-14T04:48:44;9.20;;;3.80;;
18933;SDS011;9599;53.706;10.384;2023-03-14T04:51:13;6.80;;;3.70;;
18933;SDS011;9599;53.706;10.384;2023-03-14T04:53:41;11.17;;;3.90;;
18933;SDS011;9599;53.706;10.384;2023-03-14T04:56:11;8.13;;;3.73;;
18933;SDS011;9599;53.706;10.384;2023-03-14T04:58:41;6.03;;;3.70;;
18933;SDS011;9599;53.706;10.384;2023-03-14T05:01:13;9.03;;;3.77;;
18933;SDS011;9599;53.706;10.384;2023-03-14T05:04:02;8.87;;;3.57;;
18933;SDS011;9599;53.706;10.384;2023-03-14T05:06:47;4.90;;;3.67;;
18933;SDS011;9599;53.706;10.384;2023-03-14T05:09:28;6.37;;;3.80;;
18933;SDS011;9599;53.706;10.384;2023-03-14T05:12:20;9.10;;;3.97;;
18933;SDS011;9599;53.706;10.384;2023-03-14T05:15:20;7.50;;;4.00;;
18933;SDS011;9599;53.706;10.384;2023-03-14T05:18:07;6.27;;;3.70;;
18933;SDS011;9599;53.706;10.384;2023-03-14T05:20:55;7.93;;;3.67;;
18933;SDS011;9599;53.706;10.384;2023-03-14T05:23:42;8.33;;;4.07;;
18933;SDS011;9599;53.706;10.384;2023-03-14T05:26:25;7.43;;;3.90;;
18933;SDS011;9599;53.706;10.384;2023-03-14T05:29:14;8.13;;;4.13;;
18933;SDS011;9599;53.706;10.384;2023-03-14T05:31:51;8.67;;;4.17;;
18933;SDS011;9599;53.706;10.384;2023-03-14T05:34:42;7.57;;;4.10;;
18933;SDS011;9599;53.706;10.384;2023-03-14T05:37:25;6.47;;;4.10;;
18933;SDS011;9599;53.706;10.384;2023-03-14T05:40:14;7.87;;;4.00;;
18933;SDS011;9599;53.706;10.384;2023-03-14T05:43:03;8.30;;;3.97;;
18933;SDS011;9599;53.706;10.384;2023-03-14T05:45:52;3.60;;;2.30;;
18933;SDS011;9599;53.706;10.384;2023-03-14T05:48:39;2.53;;;1.83;;
18933;SDS011;9599;53.706;10.384;2023-03-14T05:51:22;3.60;;;1.70;;
18933;SDS011;9599;53.706;10.384;2023-03-14T05:54:12;3.27;;;1.70;;
18933;SDS011;9599;53.706;10.384;2023-03-14T05:56:47;2.90;;;2.03;;
18933;SDS011;9599;53.706;10.384;2023-03-14T05:59:36;2.93;;;2.23;;
18933;SDS011;9599;53.706;10.384;2023-03-14T06:02:24;5.50;;;2.80;;
18933;SDS011;9599;53.706;10.384;2023-03-14T06:05:01;3.23;;;2.60;;
18933;SDS011;9599;53.706;10.384;2023-03-14T06:07:29;3.57;;;2.80;;
18933;SDS011;9599;53.706;10.384;2023-03-14T06:09:58;4.67;;;3.00;;
18933;SDS011;9599;53.706;10.384;2023-03-14T06:12:28;4.50;;;2.87;;
18933;SDS011;9599;53.706;10.384;2023-03-14T06:14:56;4.67;;;3.07;;
18933;SDS011;9599;53.706;10.384;2023-03-14T06:17:25;5.27;;;3.30;;
18933;SDS011;9599;53.706;10.384;2023-03-14T06:20:04;4.87;;;3.10;;
18933;SDS011;9599;53.706;10.384;2023-03-14T06:22:33;5.67;;;3.50;;
18933;SDS011;9599;53.706;10.384;2023-03-14T06:25:03;6.37;;;3.57;;
18933;SDS011;9599;53.706;10.384;2023-03-14T06:27:32;6.87;;;3.80;;
18933;SDS011;9599;53.706;10.384;2023-03-14T06:30:00;8.20;;;4.50;;
18933;SDS011;9599;53.706;10.384;2023-03-14T06:32:30;7.23;;;4.33;;
18933;SDS011;9599;53.706;10.384;2023-03-14T06:35:03;8.10;;;4.90;;
18933;SDS011;9599;53.706;10.384;2023-03-14T06:37:36;9.13;;;5.30;;
18933;SDS011;9599;53.706;10.384;2023-03-14T06:40:06;10.90;;;5.80;;
18933;SDS011;9599;53.706;10.384;2023-03-14T06:42:55;10.00;;;6.20;;
18933;SDS011;9599;53.706;10.384;2023-03-14T06:45:26;12.33;;;6.33;;
18933;SDS011;9599;53.706;10.384;2023-03-14T06:47:55;8.63;;;5.83;;
18933;SDS011;9599;53.706;10.384;2023-03-14T06:50:33;11.57;;;5.90;;
18933;SDS011;9599;53.706;10.384;2023-03-14T06:53:02;12.13;;;6.33;;
18933;SDS011;9599;53.706;10.384;2023-03-14T06:55:34;10.03;;;5.67;;
18933;SDS011;9599;53.706;10.384;2023-03-14T06:58:02;11.80;;;5.63;;
18933;SDS011;9599;53.706;10.384;2023-03-14T07:00:33;9.73;;;5.23;;
18933;SDS011;9599;53.706;10.384;2023-03-14T07:03:01;10.57;;;5.57;;
18933;SDS011;9599;53.706;10.384;2023-03-14T07:05:36;10.87;;;5.33;;
18933;SDS011;9599;53.706;10.384;2023-03-14T07:08:06;8.97;;;4.90;;
18933;SDS011;9599;53.706;10.384;2023-03-14T07:10:36;9.87;;;5.53;;
18933;SDS011;9599;53.706;10.384;2023-03-14T07:13:06;7.50;;;5.27;;
18933;SDS011;9599;53.706;10.384;2023-03-14T07:15:42;8.83;;;5.50;;
18933;SDS011;9599;53.706;10.384;2023-03-14T07:18:10;9.90;;;5.60;;
18933;SDS011;9599;53.706;10.384;2023-03-14T07:20:38;9.33;;;5.60;;
18933;SDS011;9599;53.706;10.384;2023-03-14T07:23:07;9.73;;;5.43;;
18933;SDS011;9599;53.706;10.384;2023-03-14T07:25:41;6.83;;;4.40;;
18933;SDS011;9599;53.706;10.384;2023-03-14T07:28:11;6.07;;;4.07;;
18933;SDS011;9599;53.706;10.384;2023-03-14T07:30:41;8.67;;;3.90;;
18933;SDS011;9599;53.706;10.384;2023-03-14T07:33:15;6.67;;;3.80;;
18933;SDS011;9599;53.706;10.384;2023-03-14T07:35:43;6.47;;;3.90;;
18933;SDS011;9599;53.706;10.384;2023-03-14T07:38:13;7.63;;;3.30;;
18933;SDS011;9599;53.706;10.384;2023-03-14T07:41:02;6.27;;;3.43;;
18933;SDS011;9599;53.706;10.384;2023-03-14T07:43:35;5.90;;;3.23;;
18933;SDS011;9599;53.706;10.384;2023-03-14T07:46:03;8.23;;;3.03;;
18933;SDS011;9599;53.706;10.384;2023-03-14T07:48:32;9.73;;;2.83;;
18933;SDS011;9599;53.706;10.384;2023-03-14T07:51:00;5.80;;;2.80;;
18933;SDS011;9599;53.706;10.384;2023-03-14T07:53:28;3.53;;;2.60;;
18933;SDS011;9599;53.706;10.384;2023-03-14T07:55:56;7.30;;;2.73;;
18933;SDS011;9599;53.706;10.384;2023-03-14T07:58:25;4.80;;;2.77;;
18933;SDS011;9599;53.706;10.384;2023-03-14T08:00:53;7.40;;;2.63;;
18933;SDS011;9599;53.706;10.384;2023-03-14T08:03:21;5.87;;;3.20;;
18933;SDS011;9599;53.706;10.384;2023-03-14T08:05:49;5.63;;;3.43;;
18933;SDS011;9599;53.706;10.384;2023-03-14T08:08:18;5.47;;;3.40;;
18933;SDS011;9599;53.706;10.384;2023-03-14T08:10:46;7.53;;;3.10;;
18933;SDS011;9599;53.706;10.384;2023-03-14T08:13:14;4.73;;;3.20;;
18933;SDS011;9599;53.706;10.384;2023-03-14T08:15:47;6.47;;;3.33;;
18933;SDS011;9599;53.706;10.384;2023-03-14T08:18:15;4.20;;;2.87;;
18933;SDS011;9599;53.706;10.384;2023-03-14T08:20:43;8.50;;;3.43;;
18933;SDS011;9599;53.706;10.384;2023-03-14T08:23:11;5.77;;;2.60;;
18933;SDS011;9599;53.706;10.384;2023-03-14T08:25:39;5.27;;;2.60;;
18933;SDS011;9599;53.706;10.384;2023-03-14T08:28:07;7.03;;;2.50;;
18933;SDS011;9599;53.706;10.384;2023-03-14T08:30:35;4.37;;;2.37;;
18933;SDS011;9599;53.706;10.384;2023-03-14T08:33:04;4.80;;;2.30;;
18933;SDS011;9599;53.706;10.384;2023-03-14T08:35:32;5.50;;;2.10;;
18933;SDS011;9599;53.706;10.384;2023-03-14T08:38:00;3.97;;;2.10;;
18933;SDS011;9599;53.706;10.384;2023-03-14T08:40:28;4.87;;;2.20;;
18933;SDS011;9599;53.706;10.384;2023-03-14T08:42:56;4.97;;;2.30;;
18933;SDS011;9599;53.706;10.384;2023-03-14T08:45:24;3.90;;;2.07;;
18933;SDS011;9599;53.706;10.384;2023-03-14T08:47:52;3.93;;;2.10;;
18933;SDS011;9599;53.706;10.384;2023-03-14T08:50:21;4.10;;;2.50;;
18933;SDS011;9599;53.706;10.384;2023-03-14T08:52:50;5.60;;;2.60;;
18933;SDS011;9599;53.706;10.384;2023-03-14T08:55:18;4.57;;;2.70;;
18933;SDS011;9599;53.706;10.384;2023-03-14T08:57:46;3.70;;;2.23;;
18933;SDS011;9599;53.706;10.384;2023-03-14T09:00:15;4.70;;;2.80;;
18933;SDS011;9599;53.706;10.384;2023-03-14T09:02:44;6.07;;;2.50;;
18933;SDS011;9599;53.706;10.384;2023-03-14T09:05:12;5.23;;;2.67;;
18933;SDS011;9599;53.706;10.384;2023-03-14T09:07:42;5.03;;;2.83;;
18933;SDS011;9599;53.706;10.384;2023-03-14T09:10:10;6.47;;;2.73;;
18933;SDS011;9599;53.706;10.384;2023-03-14T09:12:38;4.40;;;2.60;;
18933;SDS011;9599;53.706;10.384;2023-03-14T09:15:06;5.50;;;2.83;;
18933;SDS011;9599;53.706;10.384;2023-03-14T09:17:35;6.13;;;2.70;;
18933;SDS011;9599;53.706;10.384;2023-03-14T09:20:03;4.77;;;2.50;;
18933;SDS011;9599;53.706;10.384;2023-03-14T09:22:35;6.53;;;2.80;;
18933;SDS011;9599;53.706;10.384;2023-03-14T09:25:04;5.47;;;2.83;;
18933;SDS011;9599;53.706;10.384;2023-03-14T09:27:33;5.80;;;2.87;;
18933;SDS011;9599;53.706;10.384;2023-03-14T09:30:01;6.10;;;3.00;;
18933;SDS011;9599;53.706;10.384;2023-03-14T09:32:30;7.07;;;3.70;;
18933;SDS011;9599;53.706;10.384;2023-03-14T09:34:58;6.10;;;3.97;;
18933;SDS011;9599;53.706;10.384;2023-03-14T09:37:26;6.27;;;4.20;;
18933;SDS011;9599;53.706;10.384;2023-03-14T09:39:54;7.07;;;4.20;;
18933;SDS011;9599;53.706;10.384;2023-03-14T09:42:25;6.63;;;4.20;;
18933;SDS011;9599;53.706;10.384;2023-03-14T09:44:56;10.40;;;4.77;;
18933;SDS011;9599;53.706;10.384;2023-03-14T09:47:27;7.97;;;4.30;;
18933;SDS011;9599;53.706;10.384;2023-03-14T09:49:56;6.87;;;4.73;;
18933;SDS011;9599;53.706;10.384;2023-03-14T09:52:26;8.90;;;4.13;;
18933;SDS011;9599;53.706;10.384;2023-03-14T09:54:58;6.80;;;4.57;;
18933;SDS011;9599;53.706;10.384;2023-03-14T09:57:32;7.73;;;4.67;;
18933;SDS011;9599;53.706;10.384;2023-03-14T10:00:04;6.50;;;4.70;;
18933;SDS011;9599;53.706;10.384;2023-03-14T10:02:41;6.10;;;4.60;;
18933;SDS011;9599;53.706;10.384;2023-03-14T10:05:14;8.87;;;5.10;;
18933;SDS011;9599;53.706;10.384;2023-03-14T10:07:43;7.90;;;4.80;;
18933;SDS011;9599;53.706;10.384;2023-03-14T10:10:13;7.83;;;4.30;;
18933;SDS011;9599;53.706;10.384;2023-03-14T10:12:46;7.70;;;4.13;;
18933;SDS011;9599;53.706;10.384;2023-03-14T10:15:16;3.17;;;2.13;;
18933;SDS011;9599;53.706;10.384;2023-03-14T10:17:51;1.83;;;1.27;;
18933;SDS011;9599;53.706;10.384;2023-03-14T10:20:30;1.90;;;1.23;;
18933;SDS011;9599;53.706;10.384;2023-03-14T10:23:00;2.23;;;1.30;;
18933;SDS011;9599;53.706;10.384;2023-03-14T10:25:30;2.80;;;1.23;;
18933;SDS011;9599;53.706;10.384;2023-03-14T10:28:00;1.00;;;1.00;;
18933;SDS011;9599;53.706;10.384;2023-03-14T10:30:33;1.93;;;1.00;;
18933;SDS011;9599;53.706;10.384;2023-03-14T10:33:11;1.13;;;0.87;;
18933;SDS011;9599;53.706;10.384;2023-03-14T10:35:52;1.47;;;0.80;;
18933;SDS011;9599;53.706;10.384;2023-03-14T10:38:22;0.80;;;0.80;;
18933;SDS011;9599;53.706;10.384;2023-03-14T10:40:53;1.10;;;1.00;;
18933;SDS011;9599;53.706;10.384;2023-03-14T10:43:24;1.27;;;1.07;;
18933;SDS011;9599;53.706;10.384;2023-03-14T10:45:54;1.10;;;1.00;;
18933;SDS011;9599;53.706;10.384;2023-03-14T10:48:29;1.20;;;1.07;;
18933;SDS011;9599;53.706;10.384;2023-03-14T10:51:04;2.27;;;1.50;;
18933;SDS011;9599;53.706;10.384;2023-03-14T10:53:34;2.33;;;1.47;;
18933;SDS011;9599;53.706;10.384;2023-03-14T10:56:11;1.97;;;1.67;;
18933;SDS011;9599;53.706;10.384;2023-03-14T10:58:43;2.27;;;1.43;;
18933;SDS011;9599;53.706;10.384;2023-03-14T11:01:21;1.10;;;1.00;;
18933;SDS011;9599;53.706;10.384;2023-03-14T11:03:58;0.73;;;0.60;;
18933;SDS011;9599;53.706;10.384;2023-03-14T11:06:34;0.73;;;0.70;;
18933;SDS011;9599;53.706;10.384;2023-03-14T11:09:10;1.80;;;0.80;;
18933;SDS011;9599;53.706;10.384;2023-03-14T11:11:46;1.73;;;1.00;;
18933;SDS011;9599;53.706;10.384;2023-03-14T11:14:18;1.40;;;1.30;;
18933;SDS011;9599;53.706;10.384;2023-03-14T11:16:53;2.10;;;1.07;;
18933;SDS011;9599;53.706;10.384;2023-03-14T11:19:47;3.40;;;1.20;;
18933;SDS011;9599;53.706;10.384;2023-03-14T11:22:28;1.73;;;1.30;;
18933;SDS011;9599;53.706;10.384;2023-03-14T11:25:17;2.30;;;1.13;;
18933;SDS011;9599;53.706;10.384;2023-03-14T11:27:55;1.63;;;1.07;;
18933;SDS011;9599;53.706;10.384;2023-03-14T11:30:34;2.03;;;1.23;;
18933;SDS011;9599;53.706;10.384;2023-03-14T11:33:08;1.10;;;1.00;;
18933;SDS011;9599;53.706;10.384;2023-03-14T11:35:42;2.83;;;1.20;;
18933;SDS011;9599;53.706;10.384;2023-03-14T11:38:19;2.47;;;1.30;;
18933;SDS011;9599;53.706;10.384;2023-03-14T11:40:55;2.53;;;1.27;;
18933;SDS011;9599;53.706;10.384;2023-03-14T11:43:26;3.07;;;1.30;;
18933;SDS011;9599;53.706;10.384;2023-03-14T11:46:01;2.43;;;1.47;;
18933;SDS011;9599;53.706;10.384;2023-03-14T11:48:40;4.20;;;1.80;;
18933;SDS011;9599;53.706;10.384;2023-03-14T11:51:13;2.87;;;1.80;;
18933;SDS011;9599;53.706;10.384;2023-03-14T11:53:54;5.73;;;1.90;;
18933;SDS011;9599;53.706;10.384;2023-03-14T11:56:27;1.90;;;1.43;;
18933;SDS011;9599;53.706;10.384;2023-03-14T11:59:01;3.37;;;1.47;;
18933;SDS011;9599;53.706;10.384;2023-03-14T12:01:36;2.87;;;1.47;;
18933;SDS011;9599;53.706;10.384;2023-03-14T12:04:32;3.57;;;1.40;;
18933;SDS011;9599;53.706;10.384;2023-03-14T12:07:12;3.47;;;1.63;;
18933;SDS011;9599;53.706;10.384;2023-03-14T12:09:46;3.10;;;1.80;;
18933;SDS011;9599;53.706;10.384;2023-03-14T12:12:18;4.57;;;1.63;;
18933;SDS011;9599;53.706;10.384;2023-03-14T12:14:52;3.73;;;1.60;;
18933;SDS011;9599;53.706;10.384;2023-03-14T12:17:24;4.53;;;1.30;;
18933;SDS011;9599;53.706;10.384;2023-03-14T12:20:00;2.77;;;1.07;;
18933;SDS011;9599;53.706;10.384;2023-03-14T12:22:33;5.53;;;1.33;;
18933;SDS011;9599;53.706;10.384;2023-03-14T12:25:06;6.03;;;1.20;;
18933;SDS011;9599;53.706;10.384;2023-03-14T12:27:48;2.77;;;1.27;;
18933;SDS011;9599;53.706;10.384;2023-03-14T12:30:31;5.70;;;1.83;;
18933;SDS011;9599;53.706;10.384;2023-03-14T12:33:18;6.70;;;1.50;;
18933;SDS011;9599;53.706;10.384;2023-03-14T12:35:49;5.00;;;1.50;;
18933;SDS011;9599;53.706;10.384;2023-03-14T12:38:21;4.63;;;1.20;;
18933;SDS011;9599;53.706;10.384;2023-03-14T12:40:57;4.10;;;1.27;;
18933;SDS011;9599;53.706;10.384;2023-03-14T12:43:29;3.20;;;1.20;;
18933;SDS011;9599;53.706;10.384;2023-03-14T12:46:15;5.07;;;1.33;;
18933;SDS011;9599;53.706;10.384;2023-03-14T12:48:56;6.83;;;1.47;;
18933;SDS011;9599;53.706;10.384;2023-03-14T12:51:34;3.47;;;1.30;;
18933;SDS011;9599;53.706;10.384;2023-03-14T12:54:15;10.57;;;1.70;;
18933;SDS011;9599;53.706;10.384;2023-03-14T12:57:01;6.27;;;1.50;;
18933;SDS011;9599;53.706;10.384;2023-03-14T12:59:37;5.83;;;1.67;;
18933;SDS011;9599;53.706;10.384;2023-03-14T13:02:14;6.97;;;1.80;;
18933;SDS011;9599;53.706;10.384;2023-03-14T13:04:51;8.17;;;1.90;;
18933;SDS011;9599;53.706;10.384;2023-03-14T13:07:34;7.23;;;1.63;;
18933;SDS011;9599;53.706;10.384;2023-03-14T13:10:23;6.20;;;1.37;;
18933;SDS011;9599;53.706;10.384;2023-03-14T13:12:52;8.13;;;1.50;;
18933;SDS011;9599;53.706;10.384;2023-03-14T13:15:27;6.53;;;1.47;;
18933;SDS011;9599;53.706;10.384;2023-03-14T13:17:59;10.20;;;1.80;;
18933;SDS011;9599;53.706;10.384;2023-03-14T13:20:32;6.13;;;1.87;;
18933;SDS011;9599;53.706;10.384;2023-03-14T13:23:03;7.17;;;1.80;;
18933;SDS011;9599;53.706;10.384;2023-03-14T13:25:32;6.90;;;1.50;;
18933;SDS011;9599;53.706;10.384;2023-03-14T13:28:02;4.30;;;1.50;;
18933;SDS011;9599;53.706;10.384;2023-03-14T13:30:35;8.80;;;1.70;;
18933;SDS011;9599;53.706;10.384;2023-03-14T13:33:11;7.40;;;1.57;;
18933;SDS011;9599;53.706;10.384;2023-03-14T13:35:42;4.90;;;1.60;;
18933;SDS011;9599;53.706;10.384;2023-03-14T13:38:15;8.30;;;1.90;;
18933;SDS011;9599;53.706;10.384;2023-03-14T13:40:45;7.77;;;1.60;;
18933;SDS011;9599;53.706;10.384;2023-03-14T13:43:15;8.40;;;1.87;;
18933;SDS011;9599;53.706;10.384;2023-03-14T13:45:49;8.90;;;2.20;;
18933;SDS011;9599;53.706;10.384;2023-03-14T13:48:19;9.60;;;2.00;;
18933;SDS011;9599;53.706;10.384;2023-03-14T13:50:53;9.07;;;2.73;;
18933;SDS011;9599;53.706;10.384;2023-03-14T13:53:23;18.30;;;2.53;;
18933;SDS011;9599;53.706;10.384;2023-03-14T13:55:52;10.80;;;2.50;;
18933;SDS011;9599;53.706;10.384;2023-03-14T13:58:21;8.77;;;2.00;;
18933;SDS011;9599;53.706;10.384;2023-03-14T14:00:58;7.67;;;1.63;;
18933;SDS011;9599;53.706;10.384;2023-03-14T14:03:30;6.27;;;1.53;;
18933;SDS011;9599;53.706;10.384;2023-03-14T14:06:01;4.60;;;1.30;;
18933;SDS011;9599;53.706;10.384;2023-03-14T14:08:30;6.73;;;1.80;;
18933;SDS011;9599;53.706;10.384;2023-03-14T14:10:59;4.47;;;1.53;;
18933;SDS011;9599;53.706;10.384;2023-03-14T14:13:29;3.70;;;1.37;;
18933;SDS011;9599;53.706;10.384;2023-03-14T14:16:00;6.03;;;1.70;;
18933;SDS011;9599;53.706;10.384;2023-03-14T14:18:30;4.40;;;1.30;;
18933;SDS011;9599;53.706;10.384;2023-03-14T14:21:03;5.67;;;1.20;;
18933;SDS011;9599;53.706;10.384;2023-03-14T14:23:33;7.00;;;1.60;;
18933;SDS011;9599;53.706;10.384;2023-03-14T14:26:02;6.77;;;1.30;;
18933;SDS011;9599;53.706;10.384;2023-03-14T14:28:35;4.43;;;1.43;;
18933;SDS011;9599;53.706;10.384;2023-03-14T14:31:05;4.47;;;1.03;;
18933;SDS011;9599;53.706;10.384;2023-03-14T14:33:46;4.13;;;1.77;;
18933;SDS011;9599;53.706;10.384;2023-03-14T14:36:24;5.33;;;1.40;;
18933;SDS011;9599;53.706;10.384;2023-03-14T14:38:59;4.43;;;1.37;;
18933;SDS011;9599;53.706;10.384;2023-03-14T14:41:32;3.53;;;1.37;;
18933;SDS011;9599;53.706;10.384;2023-03-14T14:44:02;5.23;;;1.20;;
18933;SDS011;9599;53.706;10.384;2023-03-14T14:46:32;4.93;;;1.90;;
18933;SDS011;9599;53.706;10.384;2023-03-14T14:49:04;7.77;;;2.20;;
18933;SDS011;9599;53.706;10.384;2023-03-14T14:51:40;4.97;;;2.00;;
18933;SDS011;9599;53.706;10.384;2023-03-14T14:54:10;5.13;;;1.53;;
18933;SDS011;9599;53.706;10.384;2023-03-14T14:56:46;5.20;;;1.30;;
18933;SDS011;9599;53.706;10.384;2023-03-14T14:59:23;5.50;;;1.33;;
18933;SDS011;9599;53.706;10.384;2023-03-14T15:01:57;4.83;;;1.30;;
18933;SDS011;9599;53.706;10.384;2023-03-14T15:04:26;4.77;;;1.63;;
18933;SDS011;9599;53.706;10.384;2023-03-14T15:06:56;3.37;;;1.00;;
18933;SDS011;9599;53.706;10.384;2023-03-14T15:09:24;1.77;;;1.10;;
18933;SDS011;9599;53.706;10.384;2023-03-14T15:11:52;2.93;;;1.10;;
18933;SDS011;9599;53.706;10.384;2023-03-14T15:14:20;5.70;;;1.30;;
18933;SDS011;9599;53.706;10.384;2023-03-14T15:16:48;4.83;;;1.50;;
18933;SDS011;9599;53.706;10.384;2023-03-14T15:19:18;4.13;;;1.20;;
18933;SDS011;9599;53.706;10.384;2023-03-14T15:21:51;3.03;;;1.30;;
18933;SDS011;9599;53.706;10.384;2023-03-14T15:24:21;3.63;;;1.30;;